Latest Weather Observations for Inner Beacon

IDQ60801

Issued at 6:52 am EST Monday 27 May 2024 (issued every 10 minutes, with the page automatically refreshed every 10 minutes)

About weather observations | Map of weather stations | Latest weather observations for QLD | Other Formats
Station Details ID: 040926 Name: INNER RECIPROCAL MARKER Lat: -27.26 Lon: 153.24 Height: 10.0 m
Data from the previous 72 hours. | See also: Recent months at Inner Beacon
Date/Time
EST
Temp
°C
App
Temp
°C
Dew
Point
°C
Rel
Hum
%
Delta-T
°C
Wind Press
QNH
hPa
Press
MSL
hPa
Rain since
9am
mm
Dir  Spd
km/h
Gust
km/h
Spd
kts
Gust
kts
27/06:30am - - - - - SSW 17 19 9 10 - - -
27/06:00am - - - - - SSW 17 20 9 11 - - -
27/05:30am - - - - - SSW 19 22 10 12 - - -
27/05:00am - - - - - SSW 17 22 9 12 - - -
27/04:30am - - - - - SSW 19 22 10 12 - - -
27/04:00am - - - - - SSW 19 20 10 11 - - -
27/03:30am - - - - - SSW 20 24 11 13 - - -
27/03:00am - - - - - SSW 15 20 8 11 - - -
27/02:30am - - - - - SSW 17 19 9 10 - - -
27/02:00am - - - - - SW 15 17 8 9 - - -
27/01:30am - - - - - SW 15 19 8 10 - - -
27/01:00am - - - - - SW 11 15 6 8 - - -
27/12:30am - - - - - SW 13 17 7 9 - - -
27/12:00am - - - - - SSW 13 17 7 9 - - -
 
Date/Time
EST
Temp
°C
App
Temp
°C
Dew
Point
°C
Rel
Hum
%
Delta-T
°C
Wind Press
QNH
hPa
Press
MSL
hPa
Rain since
9am
mm
Dir  Spd
km/h
Gust
km/h
Spd
kts
Gust
kts
26/11:30pm - - - - - SSW 11 15 6 8 - - -
26/11:00pm - - - - - SSW 13 17 7 9 - - -
26/10:30pm - - - - - SW 9 13 5 7 - - -
26/10:00pm - - - - - S 11 13 6 7 - - -
26/09:30pm - - - - - S 7 9 4 5 - - -
26/09:00pm - - - - - SE 6 9 3 5 - - -
26/08:30pm - - - - - SSE 7 11 4 6 - - -
26/08:00pm - - - - - SSE 9 13 5 7 - - -
26/07:30pm - - - - - SE 9 13 5 7 - - -
26/07:00pm - - - - - ESE 11 15 6 8 - - -
26/06:30pm - - - - - ESE 11 15 6 8 - - -
26/06:00pm - - - - - E 7 11 4 6 - - -
26/05:30pm - - - - - ESE 17 20 9 11 - - -
26/05:00pm - - - - - SSE 13 17 7 9 - - -
26/04:30pm - - - - - CALM 0 0 0 0 - - -
26/04:00pm - - - - - SE 6 7 3 4 - - -
26/03:30pm - - - - - SE 7 9 4 5 - - -
26/03:00pm - - - - - SSE 7 11 4 6 - - -
26/02:30pm - - - - - SE 7 9 4 5 - - -
26/02:00pm - - - - - SE 9 15 5 8 - - -
26/01:30pm - - - - - S 6 9 3 5 - - -
26/01:00pm - - - - - SSE 6 9 3 5 - - -
26/12:30pm - - - - - CALM 0 0 0 0 - - -
26/12:00pm - - - - - S 9 15 5 8 - - -
26/11:30am - - - - - S 11 15 6 8 - - -
26/11:00am - - - - - SSE 15 17 8 9 - - -
26/10:30am - - - - - SSE 15 19 8 10 - - -
26/10:00am - - - - - S 15 19 8 10 - - -
26/09:30am - - - - - S 13 17 7 9 - - -
26/09:00am - - - - - S 15 19 8 10 - - -
26/08:30am - - - - - S 17 20 9 11 - - -
26/08:00am - - - - - SSW 17 20 9 11 - - -
26/07:30am - - - - - SSW 15 20 8 11 - - -
26/07:00am - - - - - SSW 15 17 8 9 - - -
26/06:30am - - - - - SSW 20 22 11 12 - - -
26/06:00am - - - - - SSW 20 26 11 14 - - -
26/05:30am - - - - - SSW 20 26 11 14 - - -
26/05:00am - - - - - SSW 20 24 11 13 - - -
26/04:30am - - - - - SSW 20 22 11 12 - - -
26/04:00am - - - - - SSW 19 24 10 13 - - -
26/03:30am - - - - - SSW 15 19 8 10 - - -
26/03:00am - - - - - SSW 11 15 6 8 - - -
26/02:30am - - - - - SSW 15 19 8 10 - - -
26/02:00am - - - - - SSW 15 19 8 10 - - -
26/01:30am - - - - - SSW 15 19 8 10 - - -
26/01:00am - - - - - SSW 15 19 8 10 - - -
26/12:30am - - - - - SSW 13 20 7 11 - - -
26/12:00am - - - - - SSW 13 17 7 9 - - -
 
Date/Time
EST
Temp
°C
App
Temp
°C
Dew
Point
°C
Rel
Hum
%
Delta-T
°C
Wind Press
QNH
hPa
Press
MSL
hPa
Rain since
9am
mm
Dir  Spd
km/h
Gust
km/h
Spd
kts
Gust
kts
25/11:30pm - - - - - SSE 9 11 5 6 - - -
25/11:00pm - - - - - SE 13 17 7 9 - - -
25/10:30pm - - - - - SSE 20 24 11 13 - - -
25/10:00pm - - - - - S 19 26 10 14 - - -
25/09:30pm - - - - - SSE 20 24 11 13 - - -
25/09:00pm - - - - - SSE 17 20 9 11 - - -
25/08:30pm - - - - - S 20 24 11 13 - - -
25/08:00pm - - - - - S 20 24 11 13 - - -
25/07:30pm - - - - - S 24 28 13 15 - - -
25/07:00pm - - - - - S 20 24 11 13 - - -
25/06:30pm - - - - - S 17 20 9 11 - - -
25/06:00pm - - - - - S 17 20 9 11 - - -
25/05:30pm - - - - - S 17 20 9 11 - - -
25/05:00pm - - - - - S 19 22 10 12 - - -
25/04:30pm - - - - - SSE 19 24 10 13 - - -
25/04:00pm - - - - - S 15 17 8 9 - - -
25/03:30pm - - - - - S 19 20 10 11 - - -
25/03:00pm - - - - - S 15 17 8 9 - - -
25/02:30pm - - - - - SSE 13 17 7 9 - - -
25/02:00pm - - - - - SSE 15 19 8 10 - - -
25/01:30pm - - - - - S 17 20 9 11 - - -
25/01:00pm - - - - - S 19 22 10 12 - - -
25/12:30pm - - - - - S 20 26 11 14 - - -
25/12:00pm - - - - - SSW 17 20 9 11 - - -
25/11:30am - - - - - SSW 17 22 9 12 - - -
25/11:00am - - - - - SSW 19 22 10 12 - - -
25/10:30am - - - - - SW 13 20 7 11 - - -
25/10:00am - - - - - SW 17 22 9 12 - - -
25/09:30am - - - - - SSW 17 22 9 12 - - -
25/09:00am - - - - - SSW 20 24 11 13 - - -
25/08:30am - - - - - S 26 32 14 17 - - -
25/08:00am - - - - - SSW 22 26 12 14 - - -
25/07:30am - - - - - SSW 26 32 14 17 - - -
25/07:00am - - - - - S 28 32 15 17 - - -
25/06:30am - - - - - SSW 28 32 15 17 - - -
25/06:00am - - - - - S 24 30 13 16 - - -
25/05:30am - - - - - SSW 22 26 12 14 - - -
25/05:00am - - - - - S 26 32 14 17 - - -
25/04:30am - - - - - SSE 22 28 12 15 - - -
25/04:00am - - - - - SSE 15 19 8 10 - - -
25/03:30am - - - - - SSE 17 20 9 11 - - -
25/03:00am - - - - - SSE 15 20 8 11 - - -
25/02:30am - - - - - S 17 20 9 11 - - -
25/02:00am - - - - - SSW 19 20 10 11 - - -
25/01:30am - - - - - SSE 24 30 13 16 - - -
25/01:00am - - - - - SSE 17 20 9 11 - - -
25/12:30am - - - - - SE 20 28 11 15 - - -
25/12:00am - - - - - SSE 19 20 10 11 - - -
 
Date/Time
EST
Temp
°C
App
Temp
°C
Dew
Point
°C
Rel
Hum
%
Delta-T
°C
Wind Press
QNH
hPa
Press
MSL
hPa
Rain since
9am
mm
Dir  Spd
km/h
Gust
km/h
Spd
kts
Gust
kts
24/11:30pm - - - - - S 20 26 11 14 - - -
24/11:00pm - - - - - S 20 24 11 13 - - -
24/10:30pm - - - - - SSE 15 22 8 12 - - -
24/10:00pm - - - - - ESE 19 24 10 13 - - -
24/09:30pm - - - - - SE 20 26 11 14 - - -
24/09:00pm - - - - - SSE 19 24 10 13 - - -
24/08:30pm - - - - - SE 15 20 8 11 - - -
24/08:00pm - - - - - SE 19 24 10 13 - - -
24/07:30pm - - - - - SE 19 24 10 13 - - -
24/07:00pm - - - - - SSE 13 15 7 8 - - -
24/06:30pm - - - - - SE 15 17 8 9 - - -
24/06:00pm - - - - - SE 17 22 9 12 - - -
24/05:30pm - - - - - ESE 19 20 10 11 - - -
24/05:00pm - - - - - E 19 24 10 13 - - -
24/04:30pm - - - - - SE 17 22 9 12 - - -
24/04:00pm - - - - - SE 19 20 10 11 - - -
24/03:30pm - - - - - ESE 19 24 10 13 - - -
24/03:00pm - - - - - ESE 26 32 14 17 - - -
24/02:30pm - - - - - ESE 30 35 16 19 - - -
24/02:00pm - - - - - SE 20 30 11 16 - - -
24/01:30pm - - - - - SSE 17 20 9 11 - - -
24/01:00pm - - - - - SSE 19 20 10 11 - - -
24/12:30pm - - - - - S 17 20 9 11 - - -
24/12:00pm - - - - - S 19 22 10 12 - - -
24/11:30am - - - - - S 20 24 11 13 - - -
24/11:00am - - - - - S 20 24 11 13 - - -
24/10:30am - - - - - S 20 24 11 13 - - -
24/10:00am - - - - - SSW 19 24 10 13 - - -
24/09:30am - - - - - SSW 20 24 11 13 - - -
24/09:00am - - - - - SSW 22 26 12 14 - - -
24/08:30am - - - - - SSW 24 28 13 15 - - -
24/08:00am - - - - - SSW 26 30 14 16 - - -
24/07:30am - - - - - SSW 24 26 13 14 - - -
24/07:00am - - - - - SSW 28 32 15 17 - - -

Other formats

Comma delimited format used in spreadsheet applications
http://www.bom.gov.au/fwo/IDQ60801/IDQ60801.94590.axf

JavaScript Object Notation format (JSON) in row-major order
http://www.bom.gov.au/fwo/IDQ60801/IDQ60801.94590.json

Data quality

Most of these data are generated automatically and are frequently updated. Quality checks on data are not normally performed. It is possible for incorrect values to appear. Refer to information at About Latest Weather Observations and please check the disclaimer before using these data.